Terminal Aerodrome Forecast
Issued by NWS Green Bay, WI

Home | Current Version | Previous Version | Graphics & Text | Print | Product List | Glossary Off
Versions: 1 2 3 4 5 6 7 8 9 10 11 12 13 14 15 16 17 18 19 20 21 22 23 24 25 26 27 28 29 30 31 32 33 34

000
FTUS43 KGRB 261100
TAFGRB
TAF
KGRB 261140Z 2612/2712 16005KT P6SM OVC070
     FM261700 16008KT 2SM -SN BKN018 OVC025
     FM270400 11005KT 2SM -SN SCT009 OVC015
     FM270800 07005KT 5SM -SN SCT009 OVC015=

USA.gov is the U.S. government's official web portal to all federal, state and local government web resources and services.